Weather at Bornholm Airport

Public forecast

Using degrees Celsius for public forecast. Weather courtesy of forecast.io.

Current aviation weather report (METAR) for Bornholm Airport

Retrieved 2021/04/19 05:20 UTC (33 minutes ago):

EKRN 190520Z AUTO 03011KT 360V070 9999 NCD 06/02 Q1021

Aviation forecast (TAF) for Bornholm Airport

Forecast is more than 12 hours old.

Retrieved 2020/10/13 06:33 UTC (6 months ago):

TAF EKRN 130526Z 1306/1415 03008KT 9999 SCT025